Terminal Aerodrome Forecast
Issued by NWS Cleveland, OH

Home | Current Version | Previous Version | Graphics & Text | Print | Product List | Glossary On
Versions: 1 2 3 4 5 6 7 8 9 10 11 12 13
000
FTUS41 KCLE 222300
TAFCAK
TAF
KCAK 222330Z 2300/2324 33008KT P6SM FEW250
     FM230100 VRB02KT P6SM FEW250
     FM231500 20006KT P6SM SCT250=

USA.gov is the U.S. government's official web portal to all federal, state and local government web resources and services.